sensor_id;sensor_type;location;lat;lon;timestamp;pressure;altitude;pressure_sealevel;temperature;humidity
69535;BME280;56754;51.568;5.048;2022-10-16T00:01:39;100949.06;;;15.59;71.93
69535;BME280;56754;51.568;5.048;2022-10-16T00:04:04;100959.03;;;15.58;72.02
69535;BME280;56754;51.568;5.048;2022-10-16T00:06:30;100960.16;;;15.57;71.93
69535;BME280;56754;51.568;5.048;2022-10-16T00:08:56;100963.63;;;15.58;72.09
69535;BME280;56754;51.568;5.048;2022-10-16T00:11:24;100957.78;;;15.56;72.22
69535;BME280;56754;51.568;5.048;2022-10-16T00:13:51;100955.09;;;15.56;71.95
69535;BME280;56754;51.568;5.048;2022-10-16T00:16:19;100957.78;;;15.56;71.78
69535;BME280;56754;51.568;5.048;2022-10-16T00:18:44;100950.84;;;15.55;72.10
69535;BME280;56754;51.568;5.048;2022-10-16T00:21:18;100955.47;;;15.54;72.19
69535;BME280;56754;51.568;5.048;2022-10-16T00:23:44;100960.06;;;15.54;72.03
69535;BME280;56754;51.568;5.048;2022-10-16T00:26:15;100952.75;;;15.54;72.23
69535;BME280;56754;51.568;5.048;2022-10-16T00:28:40;100955.78;;;15.53;72.25
69535;BME280;56754;51.568;5.048;2022-10-16T00:31:08;100956.59;;;15.53;72.22
69535;BME280;56754;51.568;5.048;2022-10-16T00:33:35;100955.47;;;15.54;72.20
69535;BME280;56754;51.568;5.048;2022-10-16T00:36:02;100948.50;;;15.53;72.24
69535;BME280;56754;51.568;5.048;2022-10-16T00:38:27;100942.31;;;15.53;72.22
69535;BME280;56754;51.568;5.048;2022-10-16T00:40:53;100945.47;;;15.55;72.08
69535;BME280;56754;51.568;5.048;2022-10-16T00:46:00;100957.38;;;15.54;72.19
69535;BME280;56754;51.568;5.048;2022-10-16T00:48:26;100952.75;;;15.54;72.25
69535;BME280;56754;51.568;5.048;2022-10-16T00:50:52;100955.09;;;15.56;72.20
69535;BME280;56754;51.568;5.048;2022-10-16T00:53:19;100957.03;;;15.55;71.98
69535;BME280;56754;51.568;5.048;2022-10-16T00:55:44;100955.09;;;15.56;72.00
69535;BME280;56754;51.568;5.048;2022-10-16T00:58:10;100964.00;;;15.56;72.10
69535;BME280;56754;51.568;5.048;2022-10-16T01:00:35;100961.31;;;15.56;72.01
69535;BME280;56754;51.568;5.048;2022-10-16T01:03:03;100960.16;;;15.57;72.09
69535;BME280;56754;51.568;5.048;2022-10-16T01:05:44;100960.16;;;15.57;72.04
69535;BME280;56754;51.568;5.048;2022-10-16T01:08:15;100970.16;;;15.57;72.11
69535;BME280;56754;51.568;5.048;2022-10-16T01:10:57;100968.25;;;15.57;71.95
69535;BME280;56754;51.568;5.048;2022-10-16T01:13:32;100975.19;;;15.58;71.96
69535;BME280;56754;51.568;5.048;2022-10-16T01:16:05;100960.16;;;15.57;71.98
69535;BME280;56754;51.568;5.048;2022-10-16T01:21:42;100963.31;;;15.59;72.00
69535;BME280;56754;51.568;5.048;2022-10-16T01:24:18;100955.56;;;15.58;72.02
69535;BME280;56754;51.568;5.048;2022-10-16T01:32:05;100957.16;;;15.59;71.84
69535;BME280;56754;51.568;5.048;2022-10-16T01:34:38;100957.94;;;15.59;71.77
69535;BME280;56754;51.568;5.048;2022-10-16T01:37:15;100963.31;;;15.59;71.77
69535;BME280;56754;51.568;5.048;2022-10-16T01:39:44;100974.09;;;15.59;71.82
69535;BME280;56754;51.568;5.048;2022-10-16T01:42:15;100966.00;;;15.59;71.81
69535;BME280;56754;51.568;5.048;2022-10-16T01:44:43;100947.16;;;15.59;71.65
69535;BME280;56754;51.568;5.048;2022-10-16T01:47:11;100946.38;;;15.59;71.92
69535;BME280;56754;51.568;5.048;2022-10-16T01:49:39;100950.16;;;15.58;71.74
69535;BME280;56754;51.568;5.048;2022-10-16T01:52:09;100941.31;;;15.57;71.58
69535;BME280;56754;51.568;5.048;2022-10-16T01:54:36;100952.88;;;15.58;71.82
69535;BME280;56754;51.568;5.048;2022-10-16T01:57:04;100967.47;;;15.57;71.48
69535;BME280;56754;51.568;5.048;2022-10-16T01:59:33;100966.34;;;15.58;71.77
69535;BME280;56754;51.568;5.048;2022-10-16T02:02:05;100960.94;;;15.58;71.67
69535;BME280;56754;51.568;5.048;2022-10-16T02:04:40;100965.56;;;15.57;71.55
69535;BME280;56754;51.568;5.048;2022-10-16T02:07:07;100967.47;;;15.57;71.77
69535;BME280;56754;51.568;5.048;2022-10-16T02:09:33;100967.78;;;15.55;71.71
69535;BME280;56754;51.568;5.048;2022-10-16T02:12:03;100963.19;;;15.56;71.62
69535;BME280;56754;51.568;5.048;2022-10-16T02:14:31;100963.19;;;15.56;71.83
69535;BME280;56754;51.568;5.048;2022-10-16T02:16:57;100964.00;;;15.56;71.94
69535;BME280;56754;51.568;5.048;2022-10-16T02:19:22;100958.16;;;15.54;71.84
69535;BME280;56754;51.568;5.048;2022-10-16T02:21:56;100960.84;;;15.54;71.87
69535;BME280;56754;51.568;5.048;2022-10-16T02:24:33;100968.16;;;15.54;71.80
69535;BME280;56754;51.568;5.048;2022-10-16T02:29:39;100965.47;;;15.54;71.87
69535;BME280;56754;51.568;5.048;2022-10-16T02:32:07;100966.56;;;15.53;72.01
69535;BME280;56754;51.568;5.048;2022-10-16T02:34:34;100962.31;;;15.52;71.88
69535;BME280;56754;51.568;5.048;2022-10-16T02:37:01;100971.94;;;15.53;71.82
69535;BME280;56754;51.568;5.048;2022-10-16T02:39:28;100966.91;;;15.51;71.89
69535;BME280;56754;51.568;5.048;2022-10-16T02:41:54;100956.13;;;15.51;71.92
69535;BME280;56754;51.568;5.048;2022-10-16T02:44:20;100959.97;;;15.50;71.79
69535;BME280;56754;51.568;5.048;2022-10-16T02:46:45;100962.66;;;15.50;71.98
69535;BME280;56754;51.568;5.048;2022-10-16T02:49:10;100972.63;;;15.50;72.07
69535;BME280;56754;51.568;5.048;2022-10-16T02:51:36;100955.69;;;15.49;71.74
69535;BME280;56754;51.568;5.048;2022-10-16T02:54:02;100949.50;;;15.48;71.99
69535;BME280;56754;51.568;5.048;2022-10-16T02:56:27;100950.66;;;15.47;71.88
69535;BME280;56754;51.568;5.048;2022-10-16T02:58:52;100956.81;;;15.48;72.05
69535;BME280;56754;51.568;5.048;2022-10-16T03:01:18;100955.25;;;15.47;72.06
69535;BME280;56754;51.568;5.048;2022-10-16T03:03:43;100954.81;;;15.45;72.01
69535;BME280;56754;51.568;5.048;2022-10-16T03:06:09;100957.50;;;15.45;71.98
69535;BME280;56754;51.568;5.048;2022-10-16T03:08:34;100957.13;;;15.46;71.80
69535;BME280;56754;51.568;5.048;2022-10-16T03:10:59;100956.72;;;15.44;71.96
69535;BME280;56754;51.568;5.048;2022-10-16T03:13:24;100950.53;;;15.44;71.94
69535;BME280;56754;51.568;5.048;2022-10-16T03:15:50;100970.50;;;15.43;71.86
69535;BME280;56754;51.568;5.048;2022-10-16T03:18:15;100975.91;;;15.43;71.95
69535;BME280;56754;51.568;5.048;2022-10-16T03:20:40;100981.28;;;15.43;72.04
69535;BME280;56754;51.568;5.048;2022-10-16T03:23:06;100980.50;;;15.42;71.74
69535;BME280;56754;51.568;5.048;2022-10-16T03:25:31;100988.59;;;15.42;72.10
69535;BME280;56754;51.568;5.048;2022-10-16T03:27:56;100995.09;;;15.41;72.20
69535;BME280;56754;51.568;5.048;2022-10-16T03:30:21;100993.50;;;15.40;71.73
69535;BME280;56754;51.568;5.048;2022-10-16T03:32:47;100981.97;;;15.40;72.10
69535;BME280;56754;51.568;5.048;2022-10-16T03:35:12;100977.69;;;15.39;71.95
69535;BME280;56754;51.568;5.048;2022-10-16T03:37:37;100985.00;;;15.38;72.12
69535;BME280;56754;51.568;5.048;2022-10-16T03:40:04;100990.38;;;15.38;71.77
69535;BME280;56754;51.568;5.048;2022-10-16T03:42:29;100995.78;;;15.38;72.28
69535;BME280;56754;51.568;5.048;2022-10-16T03:44:54;100999.25;;;15.39;72.11
69535;BME280;56754;51.568;5.048;2022-10-16T03:47:20;101007.31;;;15.39;71.93
69535;BME280;56754;51.568;5.048;2022-10-16T03:49:45;101018.09;;;15.39;71.96
69535;BME280;56754;51.568;5.048;2022-10-16T03:52:10;101007.31;;;15.39;71.85
69535;BME280;56754;51.568;5.048;2022-10-16T03:54:35;101011.13;;;15.38;72.20
69535;BME280;56754;51.568;5.048;2022-10-16T03:57:01;101013.81;;;15.38;72.23
69535;BME280;56754;51.568;5.048;2022-10-16T03:59:26;101020.00;;;15.38;72.33
69535;BME280;56754;51.568;5.048;2022-10-16T04:01:51;101023.03;;;15.37;72.00
69535;BME280;56754;51.568;5.048;2022-10-16T04:04:17;101009.56;;;15.37;71.67
69535;BME280;56754;51.568;5.048;2022-10-16T04:06:42;101010.34;;;15.37;71.96
69535;BME280;56754;51.568;5.048;2022-10-16T04:09:07;101015.72;;;15.37;72.02
69535;BME280;56754;51.568;5.048;2022-10-16T04:11:32;101017.31;;;15.38;72.59
69535;BME280;56754;51.568;5.048;2022-10-16T04:13:58;101022.72;;;15.38;72.13
69535;BME280;56754;51.568;5.048;2022-10-16T04:16:23;101032.66;;;15.38;72.24
69535;BME280;56754;51.568;5.048;2022-10-16T04:18:48;101031.09;;;15.37;72.04
69535;BME280;56754;51.568;5.048;2022-10-16T04:21:13;101032.25;;;15.36;71.92
69535;BME280;56754;51.568;5.048;2022-10-16T04:23:39;101024.16;;;15.36;72.09
69535;BME280;56754;51.568;5.048;2022-10-16T04:26:04;101016.41;;;15.34;72.04
69535;BME280;56754;51.568;5.048;2022-10-16T04:28:29;101025.25;;;15.35;72.07
69535;BME280;56754;51.568;5.048;2022-10-16T04:30:55;101032.56;;;15.34;72.21
69535;BME280;56754;51.568;5.048;2022-10-16T04:33:21;101034.47;;;15.34;71.98
69535;BME280;56754;51.568;5.048;2022-10-16T04:35:46;101039.06;;;15.33;72.14
69535;BME280;56754;51.568;5.048;2022-10-16T04:38:11;101041.78;;;15.33;72.05
69535;BME280;56754;51.568;5.048;2022-10-16T04:40:36;101056.38;;;15.32;72.18
69535;BME280;56754;51.568;5.048;2022-10-16T04:43:05;101055.25;;;15.33;72.34
69535;BME280;56754;51.568;5.048;2022-10-16T04:45:31;101057.16;;;15.33;72.04
69535;BME280;56754;51.568;5.048;2022-10-16T04:47:59;101064.44;;;15.32;71.98
69535;BME280;56754;51.568;5.048;2022-10-16T04:50:25;101074.41;;;15.32;72.15
69535;BME280;56754;51.568;5.048;2022-10-16T04:52:50;101064.78;;;15.31;72.07
69535;BME280;56754;51.568;5.048;2022-10-16T04:55:15;101064.78;;;15.31;72.27
69535;BME280;56754;51.568;5.048;2022-10-16T04:57:41;101061.28;;;15.30;72.28
69535;BME280;56754;51.568;5.048;2022-10-16T05:00:07;101065.91;;;15.30;71.90
69535;BME280;56754;51.568;5.048;2022-10-16T05:02:32;101061.63;;;15.29;72.31
69535;BME280;56754;51.568;5.048;2022-10-16T05:04:57;101068.91;;;15.28;72.13
69535;BME280;56754;51.568;5.048;2022-10-16T05:07:22;101072.38;;;15.29;71.96
69535;BME280;56754;51.568;5.048;2022-10-16T05:09:48;101066.22;;;15.28;72.13
69535;BME280;56754;51.568;5.048;2022-10-16T05:12:13;101075.44;;;15.27;72.07
69535;BME280;56754;51.568;5.048;2022-10-16T05:14:38;101080.03;;;15.27;72.21
69535;BME280;56754;51.568;5.048;2022-10-16T05:17:03;101084.63;;;15.26;72.32
69535;BME280;56754;51.568;5.048;2022-10-16T05:19:29;101084.63;;;15.26;72.21
69535;BME280;56754;51.568;5.048;2022-10-16T05:21:54;101091.13;;;15.25;72.22
69535;BME280;56754;51.568;5.048;2022-10-16T05:24:20;101098.41;;;15.24;71.87
69535;BME280;56754;51.568;5.048;2022-10-16T05:26:45;101095.72;;;15.24;72.34
69535;BME280;56754;51.568;5.048;2022-10-16T05:29:10;101102.25;;;15.23;72.26
69535;BME280;56754;51.568;5.048;2022-10-16T05:31:35;101104.13;;;15.23;72.37
69535;BME280;56754;51.568;5.048;2022-10-16T05:34:01;101107.63;;;15.23;72.47
69535;BME280;56754;51.568;5.048;2022-10-16T05:36:26;101117.59;;;15.23;72.45
69535;BME280;56754;51.568;5.048;2022-10-16T05:38:52;101123.31;;;15.21;72.45
69535;BME280;56754;51.568;5.048;2022-10-16T05:41:18;101115.25;;;15.21;72.40
69535;BME280;56754;51.568;5.048;2022-10-16T05:43:43;101127.94;;;15.21;72.39
69535;BME280;56754;51.568;5.048;2022-10-16T05:46:08;101131.41;;;15.21;72.38
69535;BME280;56754;51.568;5.048;2022-10-16T05:48:34;101135.22;;;15.20;72.32
69535;BME280;56754;51.568;5.048;2022-10-16T05:51:01;101133.31;;;15.21;72.24
69535;BME280;56754;51.568;5.048;2022-10-16T05:53:29;101144.41;;;15.19;72.26
69535;BME280;56754;51.568;5.048;2022-10-16T05:55:55;101143.63;;;15.19;72.48
69535;BME280;56754;51.568;5.048;2022-10-16T05:58:22;101150.91;;;15.18;72.43
69535;BME280;56754;51.568;5.048;2022-10-16T06:01:02;101150.91;;;15.18;72.29
69535;BME280;56754;51.568;5.048;2022-10-16T06:03:27;101153.59;;;15.18;72.54
69535;BME280;56754;51.568;5.048;2022-10-16T06:05:53;101164.38;;;15.18;72.36
69535;BME280;56754;51.568;5.048;2022-10-16T06:08:20;101162.47;;;15.19;72.53
69535;BME280;56754;51.568;5.048;2022-10-16T06:10:45;101168.19;;;15.17;72.34
69535;BME280;56754;51.568;5.048;2022-10-16T06:13:12;101172.78;;;15.17;72.32
69535;BME280;56754;51.568;5.048;2022-10-16T06:15:38;101172.00;;;15.16;72.38
69535;BME280;56754;51.568;5.048;2022-10-16T06:18:03;101178.97;;;15.17;72.42
69535;BME280;56754;51.568;5.048;2022-10-16T06:20:29;101184.34;;;15.17;72.34
69535;BME280;56754;51.568;5.048;2022-10-16T06:22:54;101178.16;;;15.17;72.37
69535;BME280;56754;51.568;5.048;2022-10-16T06:25:20;101191.63;;;15.17;72.19
69535;BME280;56754;51.568;5.048;2022-10-16T06:27:45;101194.31;;;15.17;72.34
69535;BME280;56754;51.568;5.048;2022-10-16T06:30:10;101198.59;;;15.18;72.11
69535;BME280;56754;51.568;5.048;2022-10-16T06:32:35;101203.19;;;15.17;72.35
69535;BME280;56754;51.568;5.048;2022-10-16T06:35:01;101197.81;;;15.17;72.36
69535;BME280;56754;51.568;5.048;2022-10-16T06:37:27;101203.19;;;15.17;72.21
69535;BME280;56754;51.568;5.048;2022-10-16T06:39:52;101209.38;;;15.18;72.18
69535;BME280;56754;51.568;5.048;2022-10-16T06:42:18;101204.78;;;15.18;72.28
69535;BME280;56754;51.568;5.048;2022-10-16T06:44:43;101216.00;;;15.20;72.05
69535;BME280;56754;51.568;5.048;2022-10-16T06:47:08;101212.19;;;15.21;71.89
69535;BME280;56754;51.568;5.048;2022-10-16T06:49:33;101218.03;;;15.23;72.02
69535;BME280;56754;51.568;5.048;2022-10-16T06:51:59;101227.69;;;15.24;71.52
69535;BME280;56754;51.568;5.048;2022-10-16T06:54:24;101220.38;;;15.25;71.69
69535;BME280;56754;51.568;5.048;2022-10-16T06:56:51;101223.84;;;15.25;71.79
69535;BME280;56754;51.568;5.048;2022-10-16T06:59:16;101230.84;;;15.27;71.56
69535;BME280;56754;51.568;5.048;2022-10-16T07:01:41;101237.78;;;15.28;71.56
69535;BME280;56754;51.568;5.048;2022-10-16T07:04:07;101244.75;;;15.29;71.50
69535;BME280;56754;51.568;5.048;2022-10-16T07:06:33;101259.00;;;15.29;71.51
69535;BME280;56754;51.568;5.048;2022-10-16T07:09:02;101256.28;;;15.29;71.15
69535;BME280;56754;51.568;5.048;2022-10-16T07:11:27;101265.97;;;15.30;71.22
69535;BME280;56754;51.568;5.048;2022-10-16T07:13:53;101258.66;;;15.31;71.38
69535;BME280;56754;51.568;5.048;2022-10-16T07:16:21;101271.00;;;15.32;71.33
69535;BME280;56754;51.568;5.048;2022-10-16T07:18:46;101277.22;;;15.32;70.68
69535;BME280;56754;51.568;5.048;2022-10-16T07:21:14;101269.91;;;15.33;71.41
69535;BME280;56754;51.568;5.048;2022-10-16T07:23:41;101283.81;;;15.35;71.22
69535;BME280;56754;51.568;5.048;2022-10-16T07:26:07;101283.81;;;15.35;71.16
69535;BME280;56754;51.568;5.048;2022-10-16T07:28:33;101290.78;;;15.36;71.32
69535;BME280;56754;51.568;5.048;2022-10-16T07:31:07;101290.44;;;15.37;71.31
69535;BME280;56754;51.568;5.048;2022-10-16T07:33:34;101295.06;;;15.37;70.95
69535;BME280;56754;51.568;5.048;2022-10-16T07:36:00;101298.22;;;15.39;71.49
69535;BME280;56754;51.568;5.048;2022-10-16T07:38:25;101295.97;;;15.41;71.35
69535;BME280;56754;51.568;5.048;2022-10-16T07:40:58;101295.97;;;15.41;71.36
69535;BME280;56754;51.568;5.048;2022-10-16T07:43:23;101304.03;;;15.41;71.39
69535;BME280;56754;51.568;5.048;2022-10-16T07:45:49;101312.13;;;15.41;71.39
69535;BME280;56754;51.568;5.048;2022-10-16T07:48:15;101315.28;;;15.43;71.27
69535;BME280;56754;51.568;5.048;2022-10-16T07:50:41;101311.50;;;15.44;71.51
69535;BME280;56754;51.568;5.048;2022-10-16T07:53:06;101328.44;;;15.44;71.51
69535;BME280;56754;51.568;5.048;2022-10-16T07:55:31;101328.88;;;15.46;71.43
69535;BME280;56754;51.568;5.048;2022-10-16T07:57:57;101336.63;;;15.48;71.27
69535;BME280;56754;51.568;5.048;2022-10-16T08:00:22;101333.28;;;15.51;71.25
69535;BME280;56754;51.568;5.048;2022-10-16T08:02:47;101338.31;;;15.53;71.13
69535;BME280;56754;51.568;5.048;2022-10-16T08:05:12;101358.78;;;15.54;70.84
69535;BME280;56754;51.568;5.048;2022-10-16T08:07:38;101361.91;;;15.56;71.26
69535;BME280;56754;51.568;5.048;2022-10-16T08:10:03;101368.56;;;15.58;71.28
69535;BME280;56754;51.568;5.048;2022-10-16T08:12:29;101373.63;;;15.60;71.20
69535;BME280;56754;51.568;5.048;2022-10-16T08:14:54;101375.97;;;15.61;70.96
69535;BME280;56754;51.568;5.048;2022-10-16T08:17:19;101379.94;;;15.64;70.80
69535;BME280;56754;51.568;5.048;2022-10-16T08:19:46;101379.94;;;15.64;70.48
69535;BME280;56754;51.568;5.048;2022-10-16T08:22:11;101376.13;;;15.65;70.78
69535;BME280;56754;51.568;5.048;2022-10-16T08:24:37;101381.97;;;15.67;71.08
69535;BME280;56754;51.568;5.048;2022-10-16T08:27:02;101381.66;;;15.68;70.41
69535;BME280;56754;51.568;5.048;2022-10-16T08:29:27;101384.50;;;15.72;70.69
69535;BME280;56754;51.568;5.048;2022-10-16T08:31:53;101394.97;;;15.74;70.80
69535;BME280;56754;51.568;5.048;2022-10-16T08:34:18;101399.69;;;15.77;70.58
69535;BME280;56754;51.568;5.048;2022-10-16T08:36:44;101403.59;;;15.79;70.17
69535;BME280;56754;51.568;5.048;2022-10-16T08:39:09;101405.97;;;15.81;70.27
69535;BME280;56754;51.568;5.048;2022-10-16T08:47:50;101415.44;;;15.87;70.04
69535;BME280;56754;51.568;5.048;2022-10-16T08:50:23;101411.63;;;15.88;69.98
69535;BME280;56754;51.568;5.048;2022-10-16T08:52:49;101415.91;;;15.89;69.79
69535;BME280;56754;51.568;5.048;2022-10-16T08:55:41;101412.09;;;15.90;69.92
69535;BME280;56754;51.568;5.048;2022-10-16T08:58:21;101425.25;;;15.91;69.46
69535;BME280;56754;51.568;5.048;2022-10-16T09:00:53;101431.84;;;15.94;69.27
69535;BME280;56754;51.568;5.048;2022-10-16T09:12:01;101438.19;;;15.98;68.84
69535;BME280;56754;51.568;5.048;2022-10-16T09:20:34;101436.75;;;16.01;68.82
69535;BME280;56754;51.568;5.048;2022-10-16T09:25:28;101447.97;;;16.03;68.63
69535;BME280;56754;51.568;5.048;2022-10-16T09:27:54;101441.47;;;16.04;68.88
69535;BME280;56754;51.568;5.048;2022-10-16T09:30:21;101436.84;;;16.04;68.86
69535;BME280;56754;51.568;5.048;2022-10-16T09:32:50;101449.69;;;16.07;68.89
69535;BME280;56754;51.568;5.048;2022-10-16T09:36:04;101455.53;;;16.09;68.83
69535;BME280;56754;51.568;5.048;2022-10-16T09:38:06;101448.69;;;16.12;68.63
69535;BME280;56754;51.568;5.048;2022-10-16T09:40:36;101450.28;;;16.13;68.77
69535;BME280;56754;51.568;5.048;2022-10-16T09:46:21;101446.56;;;16.18;68.79
69535;BME280;56754;51.568;5.048;2022-10-16T09:48:48;101449.72;;;16.20;68.83
69535;BME280;56754;51.568;5.048;2022-10-16T09:51:32;101457.16;;;16.23;68.68
69535;BME280;56754;51.568;5.048;2022-10-16T09:56:34;101467.28;;;16.26;68.40
69535;BME280;56754;51.568;5.048;2022-10-16T09:59:03;101456.94;;;16.28;68.52
69535;BME280;56754;51.568;5.048;2022-10-16T10:01:43;101453.13;;;16.29;68.85
69535;BME280;56754;51.568;5.048;2022-10-16T10:04:10;101462.47;;;16.31;68.48
69535;BME280;56754;51.568;5.048;2022-10-16T10:06:37;101461.00;;;16.34;68.50
69535;BME280;56754;51.568;5.048;2022-10-16T10:14:49;101466.53;;;16.37;68.67
69535;BME280;56754;51.568;5.048;2022-10-16T10:17:26;101470.47;;;16.40;68.44
69535;BME280;56754;51.568;5.048;2022-10-16T10:22:31;101480.13;;;16.41;68.03
69535;BME280;56754;51.568;5.048;2022-10-16T10:35:47;101493.22;;;16.51;67.96
69535;BME280;56754;51.568;5.048;2022-10-16T10:43:48;101489.66;;;16.59;68.04
69535;BME280;56754;51.568;5.048;2022-10-16T10:46:51;101498.19;;;16.61;67.95
69535;BME280;56754;51.568;5.048;2022-10-16T10:57:16;101501.16;;;16.69;67.11
69535;BME280;56754;51.568;5.048;2022-10-16T11:00:12;101508.91;;;16.70;67.79
69535;BME280;56754;51.568;5.048;2022-10-16T11:02:52;101500.47;;;16.72;67.03
69535;BME280;56754;51.568;5.048;2022-10-16T11:05:33;101506.66;;;16.72;67.02
69535;BME280;56754;51.568;5.048;2022-10-16T11:08:03;101512.84;;;16.73;67.12
69535;BME280;56754;51.568;5.048;2022-10-16T11:11:02;101519.03;;;16.73;66.60
69535;BME280;56754;51.568;5.048;2022-10-16T11:13:51;101523.31;;;16.74;67.00
69535;BME280;56754;51.568;5.048;2022-10-16T11:18:52;101513.31;;;16.75;67.43
69535;BME280;56754;51.568;5.048;2022-10-16T11:21:21;101516.00;;;16.75;67.21
69535;BME280;56754;51.568;5.048;2022-10-16T11:24:00;101512.53;;;16.74;67.31
69535;BME280;56754;51.568;5.048;2022-10-16T11:26:34;101513.31;;;16.75;66.97
69535;BME280;56754;51.568;5.048;2022-10-16T11:29:01;101523.00;;;16.76;67.11
69535;BME280;56754;51.568;5.048;2022-10-16T11:31:50;101517.59;;;16.76;67.50
69535;BME280;56754;51.568;5.048;2022-10-16T11:34:38;101526.94;;;16.78;67.29
69535;BME280;56754;51.568;5.048;2022-10-16T11:37:35;101525.03;;;16.79;67.77
69535;BME280;56754;51.568;5.048;2022-10-16T11:42:52;101525.03;;;16.79;67.32
69535;BME280;56754;51.568;5.048;2022-10-16T11:53:59;101544.41;;;16.81;68.09
69535;BME280;56754;51.568;5.048;2022-10-16T11:56:27;101537.06;;;16.81;68.12
69535;BME280;56754;51.568;5.048;2022-10-16T12:01:35;101531.69;;;16.81;68.16
69535;BME280;56754;51.568;5.048;2022-10-16T12:07:04;101539.09;;;16.85;68.18
69535;BME280;56754;51.568;5.048;2022-10-16T12:09:32;101538.78;;;16.86;68.05
69535;BME280;56754;51.568;5.048;2022-10-16T12:11:59;101543.53;;;16.89;68.23
69535;BME280;56754;51.568;5.048;2022-10-16T12:19:19;101547.56;;;16.95;67.86
69535;BME280;56754;51.568;5.048;2022-10-16T12:21:45;101543.44;;;16.98;67.66
69535;BME280;56754;51.568;5.048;2022-10-16T12:24:30;101537.22;;;16.97;67.74
69535;BME280;56754;51.568;5.048;2022-10-16T12:26:56;101550.38;;;16.99;67.95
69535;BME280;56754;51.568;5.048;2022-10-16T12:29:37;101552.75;;;17.00;67.83
69535;BME280;56754;51.568;5.048;2022-10-16T12:32:05;101541.16;;;17.00;67.67
69535;BME280;56754;51.568;5.048;2022-10-16T12:34:44;101531.13;;;17.00;67.74
69535;BME280;56754;51.568;5.048;2022-10-16T12:39:38;101531.28;;;17.04;67.72
69535;BME280;56754;51.568;5.048;2022-10-16T12:42:05;101541.72;;;17.05;67.67
69535;BME280;56754;51.568;5.048;2022-10-16T12:44:35;101530.59;;;17.07;67.69
69535;BME280;56754;51.568;5.048;2022-10-16T12:47:01;101533.31;;;17.07;67.72
69535;BME280;56754;51.568;5.048;2022-10-16T12:49:37;101531.38;;;17.08;67.71
69535;BME280;56754;51.568;5.048;2022-10-16T12:52:03;101534.56;;;17.10;67.84
69535;BME280;56754;51.568;5.048;2022-10-16T12:54:35;101531.50;;;17.11;67.79
69535;BME280;56754;51.568;5.048;2022-10-16T12:57:37;101523.41;;;17.11;67.70
69535;BME280;56754;51.568;5.048;2022-10-16T13:06:00;101529.25;;;17.13;67.69
69535;BME280;56754;51.568;5.048;2022-10-16T13:14:25;101545.56;;;17.17;67.62
69535;BME280;56754;51.568;5.048;2022-10-16T13:20:00;101536.34;;;17.18;67.60
69535;BME280;56754;51.568;5.048;2022-10-16T13:25:23;101542.53;;;17.18;67.62
69535;BME280;56754;51.568;5.048;2022-10-16T13:28:05;101553.00;;;17.20;67.51
69535;BME280;56754;51.568;5.048;2022-10-16T13:30:40;101559.97;;;17.21;67.59
69535;BME280;56754;51.568;5.048;2022-10-16T13:33:13;101558.88;;;17.22;67.71
69535;BME280;56754;51.568;5.048;2022-10-16T13:35:48;101554.25;;;17.22;67.69
69535;BME280;56754;51.568;5.048;2022-10-16T13:38:17;101558.53;;;17.23;67.48
69535;BME280;56754;51.568;5.048;2022-10-16T13:43:21;101555.03;;;17.23;67.66
69535;BME280;56754;51.568;5.048;2022-10-16T13:46:01;101539.63;;;17.23;67.17
69535;BME280;56754;51.568;5.048;2022-10-16T13:48:28;101552.34;;;17.23;67.34
69535;BME280;56754;51.568;5.048;2022-10-16T13:51:16;101556.59;;;17.24;67.08
69535;BME280;56754;51.568;5.048;2022-10-16T13:53:43;101543.09;;;17.24;67.15
69535;BME280;56754;51.568;5.048;2022-10-16T13:56:17;101550.53;;;17.27;67.28
69535;BME280;56754;51.568;5.048;2022-10-16T13:58:43;101547.03;;;17.26;67.09
69535;BME280;56754;51.568;5.048;2022-10-16T14:01:20;101551.78;;;17.29;67.43
69535;BME280;56754;51.568;5.048;2022-10-16T14:03:48;101554.59;;;17.33;67.17
69535;BME280;56754;51.568;5.048;2022-10-16T14:06:16;101552.00;;;17.37;67.04
69535;BME280;56754;51.568;5.048;2022-10-16T14:08:45;101545.59;;;17.41;67.18
69535;BME280;56754;51.568;5.048;2022-10-16T14:11:11;101551.34;;;17.40;67.24
69535;BME280;56754;51.568;5.048;2022-10-16T14:13:39;101548.63;;;17.40;67.20
69535;BME280;56754;51.568;5.048;2022-10-16T14:16:10;101544.34;;;17.39;67.32
69535;BME280;56754;51.568;5.048;2022-10-16T14:18:38;101550.56;;;17.39;67.16
69535;BME280;56754;51.568;5.048;2022-10-16T14:21:12;101556.28;;;17.38;67.20
69535;BME280;56754;51.568;5.048;2022-10-16T14:23:41;101563.63;;;17.37;67.18
69535;BME280;56754;51.568;5.048;2022-10-16T14:28:36;101555.81;;;17.36;67.16
69535;BME280;56754;51.568;5.048;2022-10-16T14:33:44;101540.66;;;17.31;67.23
69535;BME280;56754;51.568;5.048;2022-10-16T14:38:36;101560.66;;;17.30;67.24
69535;BME280;56754;51.568;5.048;2022-10-16T14:41:03;101546.03;;;17.31;67.16
69535;BME280;56754;51.568;5.048;2022-10-16T14:43:32;101550.31;;;17.32;67.32
69535;BME280;56754;51.568;5.048;2022-10-16T14:45:58;101540.28;;;17.33;66.94
69535;BME280;56754;51.568;5.048;2022-10-16T14:48:24;101543.00;;;17.33;67.01
69535;BME280;56754;51.568;5.048;2022-10-16T14:50:49;101532.19;;;17.33;66.85
69535;BME280;56754;51.568;5.048;2022-10-16T14:53:14;101529.84;;;17.31;66.93
69535;BME280;56754;51.568;5.048;2022-10-16T14:55:40;101541.44;;;17.32;67.13
69535;BME280;56754;51.568;5.048;2022-10-16T14:58:15;101541.75;;;17.30;67.05
69535;BME280;56754;51.568;5.048;2022-10-16T15:00:40;101539.84;;;17.31;67.01
69535;BME280;56754;51.568;5.048;2022-10-16T15:03:06;101539.03;;;17.30;67.13
69535;BME280;56754;51.568;5.048;2022-10-16T15:05:31;101539.03;;;17.30;66.91
69535;BME280;56754;51.568;5.048;2022-10-16T15:07:56;101535.56;;;17.29;67.15